Decoded Metar for CYLH (LANSDOWNE HOUSE in ON, CANADA) (IATA:N/A) | Meteo·Mobile Aviation Weather
aviador You're here:

CYLH Decoded Metar

LANSDOWNE HOUSE in ON, CANADA
Report Time2019-01-19 06:00:00
UTC Time2019-01-19 07:04:12
Flight Rules vfr VFR
Wind250° at 04 kt
W.Decomp.*RWY 26: 4.0 kt HW 0.3 kt LCW
W.Rank250° ranks 1
Current wind is below 250° avg. (7.1)
Visibility9999 m
Phenomena:N/A
Clouds:N/A
Expected CloudBase > 1,600 ft AGL from Temp-Dew spread
CeilingNone
Temp-36°C (ISA -49)
Dew Point-40°C (66% RH)
AAT-41.4°C
QNH1028 hPa
Density Alt-6,247 ft
Elevation833 ft
Report Wrong Elevation
Raw Report
METAR CYLH 190600Z AUTO 25004KT 9SM CLR M36/M40 A3035 RMK SLP322=

Extra information for CYLH:More info

Metar Taf Metar & Taf Last 4 Metars F.Rules Stats Wind Profile Meteogram Temp Stats Airport Information Weather charts Add Link Nearby VenuesMetar ALERT Operation Metar Decoded Social comments